Time;durP1;ratioP1;P1;durP2;ratioP2;P2;SDS_P1;SDS_P2;PMS_P1;PMS_P2;Temp;Humidity;BMP_temperature;BMP_pressure;BME280_temperature;BME280_humidity;BME280_pressure;Samples;Min_cycle;Max_cycle;Signal;HPM_P1;HPM_P2
2022/05/29 00:00:19;;;;;;;5.23;2.90;;;14.10;65.60;;;;;;5038052;28;20464;-77
2022/05/29 00:02:48;;;;;;;5.17;3.07;;;14.20;66.10;;;;;;5037777;28;20208;-75
2022/05/29 00:05:14;;;;;;;5.67;2.40;;;14.20;66.90;;;;;;5037791;28;20460;-77
2022/05/29 00:07:50;;;;;;;6.53;2.87;;;14.10;67.50;;;;;;5039805;28;20544;-77
2022/05/29 00:10:16;;;;;;;6.00;3.07;;;14.10;68.60;;;;;;5038134;28;20427;-78
2022/05/29 00:12:43;;;;;;;5.80;3.60;;;14.10;68.80;;;;;;5046049;28;20453;-77
2022/05/29 00:15:10;;;;;;;6.60;4.10;;;13.90;65.70;;;;;;5032297;28;20490;-77
2022/05/29 00:17:36;;;;;;;5.10;3.00;;;13.80;71.00;;;;;;5042318;28;20849;-77
2022/05/29 00:20:03;;;;;;;4.20;3.30;;;13.90;73.50;;;;;;5039811;28;20471;-75
2022/05/29 00:22:30;;;;;;;5.10;3.27;;;13.80;73.50;;;;;;5042931;28;20702;-75
2022/05/29 00:24:56;;;;;;;4.27;3.10;;;13.70;76.10;;;;;;5039136;28;20458;-76
2022/05/29 00:27:23;;;;;;;6.53;2.93;;;13.70;76.50;;;;;;5042806;28;20431;-76
2022/05/29 00:29:49;;;;;;;5.73;3.60;;;13.70;76.80;;;;;;5039497;28;21469;-76
2022/05/29 00:32:16;;;;;;;3.87;3.00;;;13.60;76.50;;;;;;5042225;28;20439;-74
2022/05/29 00:34:41;;;;;;;4.83;3.07;;;13.50;76.40;;;;;;5044047;28;20467;-77
2022/05/29 00:37:09;;;;;;;4.00;2.80;;;13.40;76.50;;;;;;5038340;28;20428;-78
2022/05/29 00:39:36;;;;;;;6.57;3.63;;;13.40;76.10;;;;;;5047841;28;20426;-75
2022/05/29 00:42:06;;;;;;;6.27;3.63;;;13.30;76.40;;;;;;5054186;28;20480;-73
2022/05/29 00:44:33;;;;;;;4.73;3.40;;;13.30;77.10;;;;;;5049095;28;20546;-76
2022/05/29 00:47:02;;;;;;;7.20;3.23;;;13.30;77.40;;;;;;5048492;28;20430;-75
2022/05/29 00:49:35;;;;;;;9.73;3.57;;;13.30;76.20;;;;;;5054011;28;20412;-75
2022/05/29 00:52:07;;;;;;;3.70;2.83;;;13.30;76.50;;;;;;5045723;28;20412;-76
2022/05/29 00:54:42;;;;;;;4.33;2.93;;;13.20;76.40;;;;;;5053532;28;20519;-75
2022/05/29 00:57:12;;;;;;;8.40;4.00;;;13.20;77.10;;;;;;5058256;28;20865;-76
2022/05/29 00:59:38;;;;;;;9.97;3.80;;;13.20;77.40;;;;;;5060697;28;20413;-76
2022/05/29 01:02:04;;;;;;;6.03;3.23;;;13.30;76.50;;;;;;5055237;28;20426;-75
2022/05/29 01:04:33;;;;;;;5.43;3.10;;;13.30;76.70;;;;;;5047721;28;20455;-75
2022/05/29 01:07:03;;;;;;;7.23;3.83;;;13.30;76.50;;;;;;5054751;28;20414;-77
2022/05/29 01:09:30;;;;;;;6.47;4.20;;;13.30;76.50;;;;;;5061425;28;20454;-75
2022/05/29 01:12:00;;;;;;;4.13;3.43;;;13.30;76.40;;;;;;5062672;28;20888;-76
2022/05/29 01:14:33;;;;;;;3.47;2.80;;;13.30;76.80;;;;;;5058963;28;20455;-75
2022/05/29 01:17:06;;;;;;;4.27;3.30;;;13.30;76.50;;;;;;5050659;28;20488;-76
2022/05/29 01:20:04;;;;;;;6.07;4.33;;;13.30;76.40;;;;;;5046705;28;20408;-76
2022/05/29 01:23:00;;;;;;;8.63;3.60;;;13.30;75.90;;;;;;5045322;28;20522;-75
2022/05/29 01:25:54;;;;;;;5.10;3.50;;;13.30;75.50;;;;;;5045375;28;20459;-76
2022/05/29 01:28:44;;;;;;;9.67;3.47;;;13.30;75.20;;;;;;5048422;28;20914;-75
2022/05/29 01:31:33;;;;;;;6.47;3.47;;;13.30;74.50;;;;;;5048475;28;20509;-75
2022/05/29 01:34:12;;;;;;;4.30;3.30;;;13.20;74.50;;;;;;5044750;28;20423;-75
2022/05/29 01:36:50;;;;;;;4.47;3.20;;;13.20;70.70;;;;;;5048716;28;20427;-77
2022/05/29 01:39:32;;;;;;;4.33;3.50;;;13.10;67.90;;;;;;5049137;28;20418;-76
2022/05/29 01:42:15;;;;;;;10.03;3.43;;;13.10;67.70;;;;;;5044831;28;20441;-76
2022/05/29 01:45:03;;;;;;;4.23;3.20;;;13.10;67.20;;;;;;5044422;28;20447;-76
2022/05/29 01:47:39;;;;;;;3.93;3.23;;;13.00;67.70;;;;;;5042283;28;20424;-76
2022/05/29 01:50:16;;;;;;;4.37;3.07;;;13.10;67.60;;;;;;5048870;28;20411;-76
2022/05/29 01:52:54;;;;;;;6.60;3.37;;;13.10;68.50;;;;;;5044805;28;20778;-76
2022/05/29 01:55:28;;;;;;;8.00;3.50;;;13.10;70.50;;;;;;5044925;28;20969;-76
2022/05/29 01:58:04;;;;;;;4.57;3.10;;;13.20;72.90;;;;;;5047185;28;20991;-76
2022/05/29 02:00:31;;;;;;;4.00;3.00;;;13.30;73.50;;;;;;5055191;28;20467;-75
2022/05/29 02:03:09;;;;;;;5.67;3.60;;;13.20;74.20;;;;;;5048256;28;20412;-77
2022/05/29 02:05:42;;;;;;;5.17;2.90;;;13.20;74.20;;;;;;5051748;28;20462;-75
2022/05/29 02:08:29;;;;;;;7.97;3.40;;;13.00;74.60;;;;;;5045727;28;20470;-76
2022/05/29 02:10:56;;;;;;;5.40;3.00;;;12.90;68.30;;;;;;5051408;28;20435;-76
2022/05/29 02:13:32;;;;;;;3.10;2.43;;;12.90;67.50;;;;;;5053865;28;20427;-77
2022/05/29 02:16:09;;;;;;;5.30;3.10;;;12.90;67.60;;;;;;5046323;28;20457;-75
2022/05/29 02:18:39;;;;;;;8.93;2.87;;;12.90;67.60;;;;;;5048767;28;20510;-76
2022/05/29 02:21:17;;;;;;;5.73;3.20;;;12.90;68.90;;;;;;5043343;28;20462;-75
2022/05/29 02:23:46;;;;;;;6.10;3.00;;;13.00;70.80;;;;;;5044581;28;20430;-76
2022/05/29 02:26:18;;;;;;;6.97;3.30;;;13.00;71.60;;;;;;5047245;28;20455;-77
2022/05/29 02:28:49;;;;;;;7.33;3.50;;;13.00;72.90;;;;;;5049980;28;20414;-75
2022/05/29 02:31:40;;;;;;;5.83;3.23;;;13.00;73.20;;;;;;5042805;28;20424;-74
2022/05/29 02:34:33;;;;;;;3.70;3.10;;;12.90;73.30;;;;;;5042954;28;20419;-74
2022/05/29 02:37:26;;;;;;;4.40;3.03;;;12.80;73.30;;;;;;5043731;28;20565;-75
2022/05/29 02:40:01;;;;;;;5.53;2.80;;;12.70;73.20;;;;;;5049481;28;20537;-77
2022/05/29 02:42:48;;;;;;;6.10;3.60;;;12.60;73.20;;;;;;5054762;28;20449;-76
2022/05/29 02:45:32;;;;;;;4.37;2.97;;;12.50;73.00;;;;;;5049057;28;20439;-77
2022/05/29 02:48:26;;;;;;;3.30;2.53;;;12.40;73.00;;;;;;5058809;28;20429;-77
2022/05/29 02:51:17;;;;;;;4.20;3.77;;;12.40;72.60;;;;;;5068983;28;20518;-76
2022/05/29 02:53:45;;;;;;;3.53;3.00;;;12.40;72.40;;;;;;5070718;28;20430;-76
2022/05/29 02:56:12;;;;;;;4.63;2.77;;;12.50;72.70;;;;;;5062218;28;20461;-77
2022/05/29 02:58:39;;;;;;;6.60;3.13;;;12.50;72.60;;;;;;5053975;28;20431;-76
2022/05/29 03:01:27;;;;;;;5.90;2.83;;;12.50;72.10;;;;;;5053506;28;20458;-76
2022/05/29 03:04:02;;;;;;;6.63;3.80;;;12.50;72.40;;;;;;5050953;28;20477;-76
2022/05/29 03:07:00;;;;;;;4.40;2.93;;;12.50;72.10;;;;;;5047987;28;20415;-76
2022/05/29 03:09:41;;;;;;;4.20;3.20;;;12.50;72.70;;;;;;5045849;28;20412;-77
2022/05/29 03:12:20;;;;;;;6.60;3.33;;;12.50;72.40;;;;;;5053657;28;20426;-76
2022/05/29 03:15:17;;;;;;;4.07;3.23;;;12.50;73.00;;;;;;5047434;28;20861;-76
2022/05/29 03:17:46;;;;;;;5.20;3.13;;;12.40;73.30;;;;;;5046767;28;20503;-76
2022/05/29 03:20:32;;;;;;;4.13;3.30;;;12.30;73.50;;;;;;5040631;28;20531;-77
2022/05/29 03:23:00;;;;;;;5.97;3.80;;;12.30;71.00;;;;;;5046995;28;20422;-76
2022/05/29 03:25:36;;;;;;;7.13;3.37;;;12.10;69.70;;;;;;5052352;28;20443;-76
2022/05/29 03:28:05;;;;;;;8.90;2.90;;;12.00;69.90;;;;;;5046552;28;20442;-76
2022/05/29 03:30:37;;;;;;;6.33;3.07;;;12.00;70.20;;;;;;5052759;28;20423;-76
2022/05/29 03:33:06;;;;;;;4.57;2.87;;;11.90;70.10;;;;;;5058289;28;20418;-77
2022/05/29 03:35:44;;;;;;;4.30;3.50;;;11.90;70.20;;;;;;5051315;28;20446;-76
2022/05/29 03:38:10;;;;;;;5.00;3.37;;;11.90;69.80;;;;;;5052660;28;20502;-77
2022/05/29 03:40:36;;;;;;;10.70;3.67;;;11.90;69.90;;;;;;5052576;28;20589;-76
2022/05/29 03:43:02;;;;;;;6.30;3.07;;;11.90;69.90;;;;;;5041529;28;20820;-76
2022/05/29 03:45:28;;;;;;;4.37;3.30;;;11.90;69.90;;;;;;5048202;28;20435;-77
2022/05/29 03:47:55;;;;;;;7.20;3.60;;;12.00;69.90;;;;;;5046652;28;20425;-76
2022/05/29 03:50:23;;;;;;;7.33;3.57;;;11.80;69.40;;;;;;5050879;28;20510;-77
2022/05/29 03:52:49;;;;;;;7.70;3.57;;;11.80;69.70;;;;;;5044484;28;20435;-77
2022/05/29 03:55:20;;;;;;;5.23;3.40;;;11.70;69.80;;;;;;5049673;28;20451;-76
2022/05/29 03:57:46;;;;;;;5.27;3.17;;;11.70;70.10;;;;;;5043994;28;20446;-76
2022/05/29 04:00:13;;;;;;;4.57;3.40;;;11.80;69.80;;;;;;5050611;28;20489;-77
2022/05/29 04:02:40;;;;;;;5.43;3.10;;;11.70;69.90;;;;;;5050123;28;20423;-76
2022/05/29 04:05:11;;;;;;;4.30;3.23;;;11.70;70.50;;;;;;5050805;28;20538;-76
2022/05/29 04:13:07;;;;;;;6.20;3.27;;;11.60;72.40;;;;;;5046143;28;20785;-77
2022/05/29 04:15:33;;;;;;;7.03;3.90;;;11.50;72.30;;;;;;5045339;28;20461;-76
2022/05/29 04:17:59;;;;;;;5.07;3.67;;;11.50;72.40;;;;;;5052150;28;20501;-77
2022/05/29 04:20:24;;;;;;;11.70;5.27;;;11.50;72.40;;;;;;5052380;28;20243;-76
2022/05/29 04:22:50;;;;;;;7.07;3.77;;;11.50;72.10;;;;;;5056090;28;20678;-77
2022/05/29 04:25:16;;;;;;;5.23;3.53;;;11.40;72.60;;;;;;5041088;28;20274;-76
2022/05/29 04:27:42;;;;;;;7.10;3.47;;;11.40;72.70;;;;;;5050765;28;20184;-77
2022/05/29 04:30:08;;;;;;;6.67;3.30;;;11.30;73.00;;;;;;5050531;28;20195;-77
2022/05/29 04:35:18;;;;;;;7.43;3.80;;;11.20;74.60;;;;;;5031567;28;20505;-76
2022/05/29 04:37:44;;;;;;;6.83;3.90;;;11.20;74.80;;;;;;5046530;28;20780;-75
2022/05/29 04:40:10;;;;;;;4.87;3.37;;;11.30;75.20;;;;;;5042928;28;20235;-75
2022/05/29 04:42:36;;;;;;;6.27;3.50;;;11.50;75.50;;;;;;5045495;28;20180;-75
2022/05/29 04:45:02;;;;;;;15.33;4.30;;;11.40;75.70;;;;;;5043284;28;20454;-75
2022/05/29 04:47:28;;;;;;;5.40;3.70;;;11.10;76.50;;;;;;5050394;28;20177;-75
2022/05/29 04:49:53;;;;;;;5.33;3.90;;;11.20;77.10;;;;;;5050607;28;20183;-75
2022/05/29 04:52:19;;;;;;;7.30;4.33;;;11.10;77.70;;;;;;5041668;28;20663;-76
2022/05/29 04:54:45;;;;;;;6.60;4.63;;;11.00;79.50;;;;;;5043552;28;20192;-75
2022/05/29 04:57:11;;;;;;;7.43;3.80;;;10.70;81.90;;;;;;5050263;28;20274;-75
2022/05/29 04:59:37;;;;;;;11.90;4.50;;;10.70;83.40;;;;;;5047954;28;20186;-75
2022/05/29 05:02:04;;;;;;;13.70;3.87;;;10.60;85.20;;;;;;5051168;28;21052;-77
2022/05/29 05:04:30;;;;;;;6.80;4.30;;;10.50;85.30;;;;;;5045940;28;20505;-75
2022/05/29 05:07:00;;;;;;;6.67;4.47;;;10.80;86.20;;;;;;5043300;28;20476;-74
2022/05/29 05:09:27;;;;;;;8.77;4.40;;;10.90;85.50;;;;;;5048689;28;20430;-76
2022/05/29 05:11:53;;;;;;;4.10;3.90;;;10.90;84.10;;;;;;5047289;28;20485;-75
2022/05/29 05:14:20;;;;;;;7.70;4.10;;;11.00;84.10;;;;;;5045956;28;20474;-76
2022/05/29 05:16:47;;;;;;;9.50;5.20;;;11.00;83.10;;;;;;5050070;28;20437;-76
2022/05/29 05:19:14;;;;;;;7.80;4.23;;;11.00;84.40;;;;;;5048111;28;20522;-75
2022/05/29 05:21:40;;;;;;;6.20;4.37;;;11.00;84.30;;;;;;5046893;28;20459;-76
2022/05/29 05:24:06;;;;;;;4.80;4.30;;;11.00;83.30;;;;;;5045779;28;20913;-76
2022/05/29 05:26:32;;;;;;;7.57;4.30;;;11.00;82.80;;;;;;5056128;28;20514;-75
2022/05/29 05:28:57;;;;;;;5.43;4.50;;;10.90;82.40;;;;;;5058164;28;21027;-76
2022/05/29 05:31:25;;;;;;;8.40;4.93;;;10.80;83.30;;;;;;5057254;28;20180;-75
2022/05/29 05:33:51;;;;;;;7.47;4.10;;;11.00;83.70;;;;;;5048744;28;20203;-75
2022/05/29 05:36:18;;;;;;;5.50;3.93;;;11.10;83.30;;;;;;5050527;28;20466;-74
2022/05/29 05:38:44;;;;;;;5.03;4.57;;;11.20;82.70;;;;;;5042198;28;20719;-76
2022/05/29 05:41:11;;;;;;;6.63;4.43;;;11.20;81.80;;;;;;5047235;28;20471;-75
2022/05/29 05:43:37;;;;;;;8.40;4.87;;;11.20;81.40;;;;;;5053141;28;20477;-75
2022/05/29 05:46:08;;;;;;;5.97;4.13;;;11.10;81.50;;;;;;5048486;28;20459;-75
2022/05/29 05:48:34;;;;;;;6.10;4.70;;;11.30;81.80;;;;;;5051843;28;20192;-75
2022/05/29 05:51:00;;;;;;;7.50;5.10;;;11.40;80.50;;;;;;5047523;28;20437;-74
2022/05/29 05:53:27;;;;;;;9.30;4.77;;;11.40;80.80;;;;;;5044457;28;20501;-76
2022/05/29 05:55:53;;;;;;;7.40;4.70;;;11.40;81.10;;;;;;5048287;28;20578;-76
2022/05/29 05:58:19;;;;;;;8.37;4.07;;;11.40;81.80;;;;;;5049108;28;20538;-76
2022/05/29 06:00:46;;;;;;;7.60;4.53;;;11.40;79.30;;;;;;5047574;28;21908;-76
2022/05/29 06:03:12;;;;;;;7.27;4.43;;;11.40;79.60;;;;;;5051678;28;20411;-76
2022/05/29 06:05:38;;;;;;;5.30;3.83;;;11.40;79.90;;;;;;5047446;28;21271;-76
2022/05/29 06:08:04;;;;;;;6.13;4.73;;;11.30;79.20;;;;;;5053628;28;20219;-75
2022/05/29 06:10:30;;;;;;;5.80;3.50;;;11.20;79.50;;;;;;5045219;28;20243;-76
2022/05/29 06:13:04;;;;;;;8.73;4.00;;;11.30;79.30;;;;;;5048668;28;20460;-76
2022/05/29 06:15:30;;;;;;;10.97;3.57;;;11.50;78.70;;;;;;5044186;28;20431;-75
2022/05/29 06:17:56;;;;;;;8.53;4.60;;;11.50;78.10;;;;;;5048378;28;20427;-76
2022/05/29 06:20:24;;;;;;;7.40;3.53;;;11.80;78.30;;;;;;5058975;28;20454;-76
2022/05/29 06:22:50;;;;;;;6.67;4.07;;;11.90;77.10;;;;;;5057560;28;20419;-76
2022/05/29 06:25:16;;;;;;;5.27;3.80;;;11.80;75.90;;;;;;5061314;28;20457;-76
2022/05/29 06:27:45;;;;;;;10.30;3.97;;;11.80;75.50;;;;;;5042670;28;20423;-77
2022/05/29 06:30:14;;;;;;;14.73;4.20;;;11.90;76.10;;;;;;5037951;28;20470;-76
2022/05/29 06:32:40;;;;;;;3.80;3.03;;;12.10;76.50;;;;;;5049965;28;20513;-75
2022/05/29 06:35:09;;;;;;;8.83;3.40;;;12.00;73.00;;;;;;5043801;28;20491;-75
2022/05/29 06:37:39;;;;;;;5.00;3.33;;;12.10;73.70;;;;;;5044958;28;20423;-75
2022/05/29 06:40:08;;;;;;;5.87;3.27;;;12.20;74.00;;;;;;5040201;28;20463;-75
2022/05/29 06:42:34;;;;;;;5.00;3.70;;;12.10;73.00;;;;;;5047038;28;20857;-76
2022/05/29 06:45:01;;;;;;;7.57;3.53;;;12.10;73.00;;;;;;5040298;28;20458;-76
2022/05/29 06:47:26;;;;;;;4.50;3.30;;;12.10;73.70;;;;;;5041194;28;20428;-76
2022/05/29 06:49:52;;;;;;;6.17;3.60;;;12.20;73.30;;;;;;5037834;28;20433;-77
2022/05/29 06:52:19;;;;;;;6.07;3.40;;;12.30;74.00;;;;;;5038519;28;20424;-77
2022/05/29 06:54:45;;;;;;;5.23;3.47;;;12.40;73.50;;;;;;5036767;28;20208;-76
2022/05/29 06:57:13;;;;;;;14.83;3.60;;;12.40;74.00;;;;;;5044660;28;20439;-77
2022/05/29 07:07:58;;;;;;;4.93;2.70;;;12.80;72.60;;;;;;5039186;28;20416;-77
2022/05/29 07:10:28;;;;;;;10.40;3.97;;;12.70;70.70;;;;;;5040109;28;20419;-77
2022/05/29 07:12:54;;;;;;;5.47;2.60;;;12.40;71.00;;;;;;5040420;28;20450;-78
2022/05/29 07:15:20;;;;;;;7.43;3.20;;;12.40;70.40;;;;;;5039450;28;20487;-77
2022/05/29 07:17:46;;;;;;;3.77;2.90;;;12.30;71.40;;;;;;5036204;28;20439;-75
2022/05/29 07:20:12;;;;;;;5.60;3.20;;;12.40;71.60;;;;;;5042837;28;20520;-76
2022/05/29 07:22:40;;;;;;;4.07;2.90;;;12.40;71.40;;;;;;5037756;28;20264;-77
2022/05/29 07:25:07;;;;;;;5.77;2.80;;;12.60;71.10;;;;;;5042866;28;20470;-76
2022/05/29 07:27:33;;;;;;;6.20;3.00;;;12.70;71.00;;;;;;5043574;28;20417;-76
2022/05/29 07:29:59;;;;;;;5.70;2.70;;;13.10;69.50;;;;;;5043381;28;20423;-77
2022/05/29 07:32:25;;;;;;;4.83;2.83;;;13.20;69.80;;;;;;5037382;28;21194;-77
2022/05/29 07:34:51;;;;;;;5.03;3.10;;;13.20;67.90;;;;;;5041170;28;20200;-78
2022/05/29 07:37:18;;;;;;;5.77;3.33;;;13.30;68.30;;;;;;5038692;28;20705;-77
2022/05/29 07:39:47;;;;;;;12.17;3.57;;;13.40;68.20;;;;;;5040834;28;20507;-76
2022/05/29 07:44:59;;;;;;;9.60;3.20;;;13.40;66.90;;;;;;5042517;28;20527;-77
2022/05/29 07:47:27;;;;;;;7.50;2.70;;;13.30;66.60;;;;;;5046043;28;20419;-75
2022/05/29 07:49:54;;;;;;;6.57;3.10;;;13.20;67.70;;;;;;5040524;28;20797;-77
2022/05/29 07:52:20;;;;;;;6.07;3.20;;;13.00;68.20;;;;;;5036892;28;20446;-76
2022/05/29 07:54:45;;;;;;;6.17;2.67;;;13.00;68.00;;;;;;5035686;28;20974;-74
2022/05/29 07:57:12;;;;;;;8.10;2.80;;;13.10;66.90;;;;;;5038302;28;20443;-76
2022/05/29 07:59:37;;;;;;;7.10;2.50;;;13.10;67.50;;;;;;5038463;28;20196;-78
2022/05/29 08:02:03;;;;;;;10.40;2.53;;;13.20;67.30;;;;;;5046972;28;20466;-76
2022/05/29 08:04:29;;;;;;;9.87;3.33;;;13.30;66.10;;;;;;5037979;28;20261;-76
2022/05/29 08:06:55;;;;;;;6.07;2.53;;;13.40;65.60;;;;;;5046190;28;20806;-76
2022/05/29 08:09:22;;;;;;;5.63;3.00;;;13.40;65.00;;;;;;5034851;28;20181;-78
2022/05/29 08:11:48;;;;;;;6.23;2.80;;;13.10;66.10;;;;;;5043072;28;20411;-76
2022/05/29 08:14:13;;;;;;;6.10;2.60;;;13.20;66.70;;;;;;5038167;28;20905;-76
2022/05/29 08:16:40;;;;;;;7.57;2.40;;;12.90;69.80;;;;;;5043860;28;20429;-77
2022/05/29 08:19:07;;;;;;;9.17;3.60;;;13.00;70.10;;;;;;5050537;28;20200;-77
2022/05/29 08:21:33;;;;;;;5.27;2.60;;;12.90;69.40;;;;;;5040263;28;20471;-77
2022/05/29 08:32:15;;;;;;;5.50;2.70;;;13.20;69.50;;;;;;5070648;28;20442;-76
2022/05/29 08:34:42;;;;;;;6.97;3.00;;;13.10;69.40;;;;;;5074062;28;20929;-77
2022/05/29 08:37:08;;;;;;;5.57;2.73;;;13.30;69.90;;;;;;5061822;28;20447;-76
2022/05/29 08:39:35;;;;;;;6.43;3.33;;;13.60;69.50;;;;;;5057093;28;20407;-77
2022/05/29 08:42:01;;;;;;;6.70;2.97;;;13.80;68.80;;;;;;5054249;28;20570;-77
2022/05/29 08:44:33;;;;;;;7.90;3.30;;;14.10;68.90;;;;;;5053763;28;20463;-77
2022/05/29 08:47:02;;;;;;;8.20;3.50;;;14.00;68.20;;;;;;5050818;28;20422;-77
2022/05/29 08:49:38;;;;;;;5.63;3.37;;;13.70;68.50;;;;;;5050477;28;20458;-76
2022/05/29 08:52:20;;;;;;;14.13;3.00;;;13.00;71.40;;;;;;5053172;28;20403;-77
2022/05/29 08:55:08;;;;;;;8.50;3.13;;;13.20;71.10;;;;;;5050603;28;20431;-77
2022/05/29 08:57:42;;;;;;;9.47;3.17;;;12.90;71.40;;;;;;5052456;28;20438;-77
2022/05/29 09:00:49;;;;;;;6.00;2.90;;;13.00;71.60;;;;;;5047231;28;20891;-77
2022/05/29 09:03:33;;;;;;;5.70;3.37;;;12.80;72.30;;;;;;5048906;28;21008;-77
2022/05/29 09:06:07;;;;;;;7.43;3.47;;;13.00;71.80;;;;;;5048824;28;20454;-77
2022/05/29 09:08:49;;;;;;;7.40;3.00;;;12.80;72.00;;;;;;5053039;28;20409;-77
2022/05/29 09:11:42;;;;;;;8.13;3.20;;;12.60;73.00;;;;;;5051321;28;20426;-77
2022/05/29 09:14:45;;;;;;;6.07;3.20;;;12.70;73.00;;;;;;5054172;28;20439;-77
2022/05/29 09:17:23;;;;;;;5.00;3.77;;;12.30;74.60;;;;;;5038697;28;20511;-78
2022/05/29 09:20:00;;;;;;;16.30;3.60;;;12.50;75.10;;;;;;5053279;28;20936;-76
2022/05/29 09:22:31;;;;;;;5.40;3.53;;;12.60;74.80;;;;;;5045967;28;20470;-77
2022/05/29 09:24:57;;;;;;;6.17;3.13;;;12.50;76.40;;;;;;5050555;28;20551;-77
2022/05/29 09:27:23;;;;;;;5.43;3.10;;;12.70;75.90;;;;;;5052503;28;20499;-77
2022/05/29 09:29:52;;;;;;;6.00;3.20;;;13.00;75.20;;;;;;5052001;28;20627;-77
2022/05/29 09:32:22;;;;;;;12.83;4.77;;;13.10;74.30;;;;;;5049921;28;20509;-77
2022/05/29 09:35:01;;;;;;;10.93;3.33;;;13.20;75.10;;;;;;5039131;28;20442;-75
2022/05/29 09:37:40;;;;;;;5.77;3.30;;;13.10;74.60;;;;;;5054331;28;20439;-77
2022/05/29 09:40:21;;;;;;;6.17;2.87;;;12.60;75.90;;;;;;5039363;28;20514;-76
2022/05/29 09:42:48;;;;;;;7.27;4.10;;;12.70;76.50;;;;;;5059285;28;20399;-76
2022/05/29 09:45:24;;;;;;;6.20;3.67;;;12.60;75.70;;;;;;5069705;28;21007;-76
2022/05/29 09:50:40;;;;;;;6.23;3.00;;;13.10;72.70;;;;;;5055351;28;20477;-78
2022/05/29 09:53:34;;;;;;;8.70;3.57;;;13.10;72.90;;;;;;5053844;28;20419;-78
2022/05/29 09:56:01;;;;;;;6.07;3.13;;;12.70;73.70;;;;;;5052230;28;20479;-76
2022/05/29 09:58:48;;;;;;;6.30;3.40;;;12.70;75.40;;;;;;5055426;28;20462;-78
2022/05/29 10:01:27;;;;;;;6.90;3.50;;;13.00;74.80;;;;;;5056849;28;20470;-76
2022/05/29 10:03:56;;;;;;;7.00;3.37;;;13.50;73.20;;;;;;5049031;28;20415;-77
2022/05/29 10:06:22;;;;;;;7.80;3.00;;;13.40;72.60;;;;;;5052954;28;20465;-76
2022/05/29 10:08:49;;;;;;;14.37;3.90;;;13.80;72.90;;;;;;5051149;28;21209;-77
2022/05/29 10:11:35;;;;;;;6.90;2.80;;;14.10;71.40;;;;;;5050616;28;20180;-76
2022/05/29 10:14:20;;;;;;;11.40;3.07;;;13.90;69.20;;;;;;5048397;28;20443;-76
2022/05/29 10:16:47;;;;;;;5.73;2.70;;;14.10;68.30;;;;;;5046485;28;20423;-76
2022/05/29 10:19:30;;;;;;;5.70;2.83;;;14.20;67.50;;;;;;5045065;28;20556;-78
2022/05/29 10:21:55;;;;;;;11.20;3.50;;;13.80;67.60;;;;;;5047537;28;20479;-77
2022/05/29 10:24:28;;;;;;;7.73;3.50;;;13.70;67.20;;;;;;5050709;28;20435;-78
2022/05/29 10:27:00;;;;;;;4.67;2.50;;;13.10;68.50;;;;;;5048018;28;20430;-77
2022/05/29 10:29:29;;;;;;;8.80;2.97;;;13.20;68.80;;;;;;5041352;28;20459;-77
2022/05/29 10:31:56;;;;;;;8.27;3.90;;;13.20;67.70;;;;;;5046034;28;20415;-77
2022/05/29 10:34:32;;;;;;;9.80;2.83;;;13.30;66.90;;;;;;5036053;28;20456;-78
2022/05/29 10:36:58;;;;;;;7.20;3.20;;;13.20;67.30;;;;;;5045715;28;20809;-77
2022/05/29 10:39:31;;;;;;;6.03;3.47;;;12.90;67.20;;;;;;5048618;28;20426;-77
2022/05/29 10:41:58;;;;;;;10.53;3.77;;;12.80;67.60;;;;;;5048936;28;20473;-76
2022/05/29 10:44:44;;;;;;;10.77;3.47;;;12.70;71.60;;;;;;5041322;28;20472;-75
2022/05/29 10:47:16;;;;;;;10.40;3.33;;;12.60;74.50;;;;;;5044597;28;20434;-76
2022/05/29 10:49:47;;;;;;;8.30;3.87;;;12.60;75.50;;;;;;5043523;28;20403;-76
2022/05/29 10:52:35;;;;;;;5.40;3.30;;;12.50;75.80;;;;;;5042636;28;20778;-76
2022/05/29 10:55:07;;;;;;;8.57;3.43;;;12.40;75.50;;;;;;5043341;28;20493;-76
2022/05/29 10:58:03;;;;;;;6.50;3.17;;;12.20;75.90;;;;;;5047901;28;20481;-77
2022/05/29 11:00:46;;;;;;;7.33;3.13;;;11.90;76.10;;;;;;5054329;28;20457;-76
2022/05/29 11:03:24;;;;;;;5.00;3.13;;;12.00;77.00;;;;;;5043769;28;20752;-78
2022/05/29 11:06:15;;;;;;;5.20;3.20;;;12.00;76.80;;;;;;5046260;28;20454;-77
2022/05/29 11:08:49;;;;;;;5.77;3.03;;;12.10;75.70;;;;;;5045859;28;20435;-77
2022/05/29 11:11:27;;;;;;;5.23;3.03;;;11.80;76.40;;;;;;5047046;28;20430;-77
2022/05/29 11:14:05;;;;;;;8.73;3.07;;;12.00;75.40;;;;;;5053309;28;20483;-77
2022/05/29 11:16:36;;;;;;;4.87;2.73;;;11.90;75.20;;;;;;5052834;28;20454;-77
2022/05/29 11:19:26;;;;;;;4.07;2.17;;;12.50;73.50;;;;;;5057924;28;20415;-76
2022/05/29 11:22:07;;;;;;;2.30;1.90;;;13.40;68.90;;;;;;5048017;28;20475;-75
2022/05/29 11:24:59;;;;;;;3.93;1.90;;;13.70;64.70;;;;;;5073028;28;20443;-77
2022/05/29 11:27:56;;;;;;;4.73;2.57;;;13.50;65.70;;;;;;5059250;28;20420;-78
2022/05/29 11:30:37;;;;;;;4.40;2.40;;;13.60;64.20;;;;;;5040840;28;20533;-77
2022/05/29 11:33:41;;;;;;;4.20;2.37;;;13.90;64.50;;;;;;5050995;28;20423;-76
2022/05/29 11:36:16;;;;;;;3.60;2.20;;;14.30;61.60;;;;;;5042387;28;20454;-76
2022/05/29 11:38:44;;;;;;;5.07;2.40;;;14.20;62.00;;;;;;5043313;28;20414;-77
2022/05/29 11:41:40;;;;;;;5.47;2.30;;;14.00;62.30;;;;;;5046589;28;20463;-78
2022/05/29 11:44:22;;;;;;;5.50;2.20;;;13.90;62.00;;;;;;5047796;28;20586;-76
2022/05/29 11:52:32;;;;;;;5.17;2.67;;;13.70;62.50;;;;;;5048994;28;20907;-76
2022/05/29 11:55:14;;;;;;;3.33;1.90;;;13.60;62.80;;;;;;5046310;28;20474;-76
2022/05/29 11:57:49;;;;;;;4.50;2.17;;;13.80;61.50;;;;;;5042638;28;20497;-76
2022/05/29 12:00:37;;;;;;;4.63;1.90;;;13.80;61.90;;;;;;5053397;28;20454;-77
2022/05/29 12:03:31;;;;;;;2.83;1.97;;;13.70;62.80;;;;;;5045146;28;20428;-78
2022/05/29 12:06:20;;;;;;;6.03;2.20;;;13.90;62.00;;;;;;5058177;28;20523;-77
2022/05/29 12:09:03;;;;;;;4.13;1.90;;;14.10;61.00;;;;;;5053148;28;21004;-77
2022/05/29 12:11:32;;;;;;;7.03;2.20;;;13.60;61.50;;;;;;5047039;28;20415;-75
2022/05/29 12:14:22;;;;;;;4.93;2.67;;;13.50;62.90;;;;;;5046993;28;20420;-77
2022/05/29 12:16:53;;;;;;;5.53;3.13;;;13.20;71.60;;;;;;5001846;28;20435;-76
2022/05/29 12:19:24;;;;;;;7.20;3.00;;;13.30;72.10;;;;;;5045206;28;20423;-77
2022/05/29 12:21:58;;;;;;;5.30;3.10;;;13.60;69.80;;;;;;5036881;28;20462;-77
2022/05/29 12:24:26;;;;;;;6.37;2.90;;;13.80;70.50;;;;;;5043177;28;20443;-76
2022/05/29 12:27:03;;;;;;;7.00;3.33;;;14.10;69.40;;;;;;5048326;28;20459;-75
2022/05/29 12:29:59;;;;;;;5.80;2.67;;;14.50;68.20;;;;;;5049655;28;20518;-77
2022/05/29 12:32:31;;;;;;;4.50;3.00;;;14.90;65.30;;;;;;5051790;28;20905;-76
2022/05/29 12:35:26;;;;;;;8.47;3.00;;;15.30;63.90;;;;;;5053243;28;20466;-76
2022/05/29 12:38:15;;;;;;;7.23;2.77;;;15.10;64.40;;;;;;5060757;28;20422;-77
2022/05/29 12:40:43;;;;;;;3.80;2.50;;;15.60;63.90;;;;;;5059724;28;20565;-76
2022/05/29 12:43:39;;;;;;;4.83;2.80;;;14.80;65.00;;;;;;5052757;28;21019;-77
2022/05/29 12:46:34;;;;;;;3.93;2.70;;;14.60;65.40;;;;;;5047867;28;20466;-75
2022/05/29 12:49:19;;;;;;;9.37;3.40;;;14.00;64.70;;;;;;5056206;28;20435;-75
2022/05/29 12:52:15;;;;;;;5.77;2.90;;;13.70;67.20;;;;;;5057068;28;20445;-76
2022/05/29 12:55:12;;;;;;;8.97;2.80;;;13.90;67.20;;;;;;5056933;28;20458;-76
2022/05/29 12:58:12;;;;;;;3.90;2.23;;;14.40;65.70;;;;;;5052635;28;20463;-79
2022/05/29 13:01:05;;;;;;;4.20;1.90;;;14.30;63.20;;;;;;5043304;28;20888;-78
2022/05/29 13:03:46;;;;;;;6.30;2.60;;;14.40;60.00;;;;;;5046161;28;20496;-78
2022/05/29 13:06:26;;;;;;;3.70;1.90;;;14.30;61.70;;;;;;5047727;28;20992;-76
2022/05/29 13:09:30;;;;;;;6.23;2.20;;;14.20;63.10;;;;;;5047190;28;20894;-78
2022/05/29 13:12:03;;;;;;;5.37;2.90;;;14.10;62.60;;;;;;5048329;28;20434;-77
2022/05/29 13:14:30;;;;;;;4.50;2.33;;;14.30;61.70;;;;;;5037668;28;20888;-76
2022/05/29 13:17:11;;;;;;;3.30;1.93;;;14.80;60.60;;;;;;5045876;28;20481;-74
2022/05/29 13:19:56;;;;;;;9.13;2.30;;;15.00;58.90;;;;;;5043155;28;20459;-76
2022/05/29 13:22:41;;;;;;;6.63;2.10;;;16.20;55.80;;;;;;5044702;28;20434;-77
2022/05/29 13:25:07;;;;;;;5.00;2.00;;;16.40;55.30;;;;;;5043693;28;20500;-77
2022/05/29 13:27:33;;;;;;;4.20;2.17;;;17.00;54.80;;;;;;5041383;28;20420;-77
2022/05/29 13:30:01;;;;;;;6.93;2.83;;;16.90;54.20;;;;;;5046337;28;20509;-75
2022/05/29 13:32:32;;;;;;;7.03;2.53;;;16.60;55.70;;;;;;5050791;28;20442;-78
2022/05/29 13:35:04;;;;;;;6.90;2.57;;;15.90;56.00;;;;;;5054357;28;20462;-77
2022/05/29 13:37:46;;;;;;;2.30;1.80;;;15.80;56.40;;;;;;5051261;28;20423;-76
2022/05/29 13:40:21;;;;;;;3.40;2.20;;;15.90;56.10;;;;;;5056541;28;20414;-77
2022/05/29 13:43:28;;;;;;;4.03;2.27;;;16.00;57.30;;;;;;5054711;28;20868;-77
2022/05/29 13:45:57;;;;;;;2.90;1.80;;;16.50;55.70;;;;;;5048075;28;20470;-76
2022/05/29 13:48:25;;;;;;;3.07;1.90;;;16.70;54.90;;;;;;5048239;28;20428;-75
2022/05/29 13:51:05;;;;;;;4.70;2.37;;;17.10;53.60;;;;;;5054513;28;20432;-74
2022/05/29 13:54:05;;;;;;;3.70;1.93;;;17.40;51.80;;;;;;5055129;28;20447;-79